Time;durP1;ratioP1;P1;durP2;ratioP2;P2;SDS_P1;SDS_P2;PMS_P1;PMS_P2;Temp;Humidity;BMP_temperature;BMP_pressure;BME280_temperature;BME280_humidity;BME280_pressure;Samples;Min_cycle;Max_cycle;Signal;HPM_P1;HPM_P2
2022/05/09 00:01:52;;;;;;;11.77;9.50;;;;;;;18.19;52.33;98151.31;5011044;28;20204;-69
2022/05/09 00:04:18;;;;;;;8.90;8.07;;;;;;;18.14;52.59;98152.84;5010810;28;20199;-70
2022/05/09 00:06:45;;;;;;;11.70;10.50;;;;;;;17.94;52.90;98154.13;5010439;28;20278;-69
2022/05/09 00:09:10;;;;;;;9.70;7.83;;;;;;;17.94;53.03;98155.97;5010726;28;20662;-69
2022/05/09 00:11:36;;;;;;;10.90;8.83;;;;;;;18.03;52.71;98149.63;5010595;28;20443;-70
2022/05/09 00:14:01;;;;;;;9.13;8.20;;;;;;;18.03;52.74;98146.97;5010783;28;20188;-71
2022/05/09 00:16:33;;;;;;;9.40;8.50;;;;;;;17.95;52.74;98139.88;5010502;28;20208;-69
2022/05/09 00:18:59;;;;;;;9.37;8.37;;;;;;;17.88;52.67;98136.28;5010814;28;20206;-69
2022/05/09 00:21:25;;;;;;;10.50;8.50;;;;;;;18.01;52.66;98142.84;4985320;28;20451;-70
2022/05/09 00:23:51;;;;;;;12.00;9.50;;;;;;;17.93;52.80;98141.84;5014115;28;20576;-70
2022/05/09 00:26:17;;;;;;;10.03;9.00;;;;;;;17.93;52.36;98139.22;5018189;28;20220;-69
2022/05/09 00:28:43;;;;;;;13.53;8.17;;;;;;;17.86;52.97;98140.09;5010869;28;20543;-70
2022/05/09 00:31:08;;;;;;;11.03;8.90;;;;;;;17.83;52.82;98137.81;5010658;28;20678;-72
2022/05/09 00:33:34;;;;;;;10.70;9.07;;;;;;;17.80;52.59;98136.31;5010708;28;20192;-71
2022/05/09 00:36:00;;;;;;;9.80;8.80;;;;;;;17.69;53.09;98134.06;5010687;28;20564;-71
2022/05/09 00:38:26;;;;;;;9.83;8.77;;;;;;;17.60;52.92;98142.09;5013941;28;20180;-71
2022/05/09 00:41:37;;;;;;;9.00;8.10;;;;;;;17.65;52.89;98138.91;5013805;28;20223;-70
2022/05/09 00:43:39;;;;;;;10.03;9.10;;;;;;;17.37;53.47;98138.56;4999837;28;20431;-71
2022/05/09 00:46:05;;;;;;;9.60;8.60;;;;;;;17.41;53.70;98137.19;5013944;28;20956;-71
2022/05/09 00:48:31;;;;;;;9.27;8.37;;;;;;;17.39;53.49;98141.88;4996443;28;20968;-70
2022/05/09 00:50:58;;;;;;;10.37;9.37;;;;;;;17.49;53.49;98140.63;5013875;28;20439;-71
2022/05/09 00:53:24;;;;;;;12.43;8.57;;;;;;;17.38;53.41;98137.56;5013080;28;20196;-70
2022/05/09 00:55:54;;;;;;;12.33;8.70;;;;;;;17.44;53.38;98142.16;4996481;28;20419;-73
2022/05/09 00:58:32;;;;;;;11.10;9.40;;;;;;;17.46;53.19;98140.97;5012023;28;20436;-71
2022/05/09 01:00:57;;;;;;;9.50;7.90;;;;;;;17.45;53.01;98141.16;5013696;28;20930;-71
2022/05/09 01:03:26;;;;;;;9.83;8.50;;;;;;;17.39;53.16;98137.38;5013491;28;20430;-71
2022/05/09 01:05:52;;;;;;;9.33;8.50;;;;;;;17.43;52.94;98145.81;5013414;28;20195;-71
2022/05/09 01:08:19;;;;;;;11.40;9.57;;;;;;;17.28;53.31;98143.88;4995710;28;20899;-71
2022/05/09 01:10:45;;;;;;;10.13;8.13;;;;;;;17.24;53.53;98137.28;5013621;28;20208;-70
2022/05/09 01:13:12;;;;;;;9.80;8.90;;;;;;;17.15;53.58;98147.09;4995379;28;20493;-69
2022/05/09 01:15:40;;;;;;;10.73;9.63;;;;;;;17.24;53.50;98145.25;4995921;28;20296;-71
2022/05/09 01:18:08;;;;;;;9.97;8.83;;;;;;;17.25;53.54;98146.91;5012873;28;20463;-69
2022/05/09 01:20:33;;;;;;;9.57;8.67;;;;;;;17.24;53.24;98149.69;5013160;28;20431;-70
2022/05/09 01:22:59;;;;;;;10.10;8.50;;;;;;;17.17;53.15;98147.75;5014190;28;20442;-72
2022/05/09 01:25:25;;;;;;;9.97;8.97;;;;;;;17.21;52.99;98142.94;4989626;28;20543;-71
2022/05/09 01:27:51;;;;;;;11.73;8.07;;;;;;;17.05;53.03;98149.13;4995314;28;20219;-70
2022/05/09 01:30:20;;;;;;;9.47;8.50;;;;;;;17.03;53.48;98153.75;5012970;28;20451;-69
2022/05/09 01:32:48;;;;;;;9.10;8.07;;;;;;;16.97;53.51;98157.91;4995056;28;20231;-69
2022/05/09 01:35:22;;;;;;;9.10;8.20;;;;;;;16.98;53.39;98150.78;5012756;28;20428;-70
2022/05/09 01:37:50;;;;;;;10.67;8.53;;;;;;;16.94;53.29;98149.47;4995416;28;20467;-70
2022/05/09 01:40:16;;;;;;;9.40;8.50;;;;;;;16.81;53.67;98152.63;5011491;28;20428;-70
2022/05/09 01:42:42;;;;;;;11.23;9.00;;;;;;;16.76;53.76;98154.97;5012889;28;20497;-69
2022/05/09 01:45:09;;;;;;;9.47;8.53;;;;;;;16.74;54.01;98155.97;5012761;28;20188;-70
2022/05/09 01:50:19;;;;;;;9.00;8.10;;;;;;;16.90;53.54;98151.59;5012740;28;20466;-70
2022/05/09 01:52:45;;;;;;;12.80;8.03;;;;;;;16.81;53.72;98147.31;4995131;28;20985;-69
2022/05/09 01:55:10;;;;;;;11.23;9.70;;;;;;;16.80;53.92;98145.66;5012140;28;20568;-69
2022/05/09 01:57:36;;;;;;;12.10;8.73;;;;;;;16.83;53.75;98151.44;5012166;28;20566;-70
2022/05/09 02:00:05;;;;;;;8.93;8.03;;;;;;;16.73;54.04;98146.38;5012016;28;20267;-69
2022/05/09 02:02:31;;;;;;;9.80;8.90;;;;;;;16.80;53.68;98146.50;5012576;28;20200;-69
2022/05/09 02:04:56;;;;;;;9.63;8.60;;;;;;;16.79;53.40;98151.97;5012731;28;20926;-69
2022/05/09 02:07:23;;;;;;;9.43;8.40;;;;;;;16.82;53.29;98155.09;5012008;28;20188;-70
2022/05/09 02:09:49;;;;;;;9.90;8.90;;;;;;;16.81;53.23;98155.28;5012406;28;20242;-69
2022/05/09 02:12:16;;;;;;;9.37;8.47;;;;;;;16.77;53.38;98156.59;5011988;28;20451;-69
2022/05/09 02:14:43;;;;;;;9.83;8.90;;;;;;;16.68;53.47;98153.97;5012339;28;20431;-69
2022/05/09 02:17:09;;;;;;;13.07;8.67;;;;;;;16.66;53.33;98155.97;5011569;28;20471;-71
2022/05/09 02:19:35;;;;;;;10.73;8.50;;;;;;;16.47;53.62;98157.13;5012356;28;20431;-69
2022/05/09 02:22:01;;;;;;;9.50;8.60;;;;;;;16.52;53.76;98154.81;5018342;28;20500;-70
2022/05/09 02:24:28;;;;;;;9.97;8.97;;;;;;;16.53;53.67;98160.94;5011923;28;20212;-71
2022/05/09 02:26:53;;;;;;;9.07;8.23;;;;;;;16.58;53.32;98153.34;5011658;28;20271;-70
2022/05/09 02:29:19;;;;;;;11.27;9.60;;;;;;;16.50;53.91;98156.00;5013379;28;20518;-69
2022/05/09 02:31:45;;;;;;;9.43;8.53;;;;;;;16.47;53.82;98151.84;5011869;28;20616;-71
2022/05/09 02:34:10;;;;;;;9.47;8.57;;;;;;;16.41;54.27;98166.56;5011427;28;20311;-71
2022/05/09 02:36:36;;;;;;;10.47;9.47;;;;;;;16.34;54.56;98157.66;5011352;28;20707;-72
2022/05/09 02:39:01;;;;;;;14.13;8.80;;;;;;;16.34;54.34;98156.81;5011701;28;20189;-70
2022/05/09 02:41:27;;;;;;;9.50;8.50;;;;;;;16.37;53.74;98159.97;4994138;28;20694;-71
2022/05/09 02:43:52;;;;;;;10.73;9.63;;;;;;;16.35;53.91;98156.66;5011645;28;20193;-70
2022/05/09 02:46:18;;;;;;;9.87;8.87;;;;;;;16.31;54.32;98157.97;4993688;28;20583;-71
2022/05/09 02:48:44;;;;;;;11.33;8.83;;;;;;;16.29;54.01;98165.25;5011722;28;20188;-71
2022/05/09 02:51:10;;;;;;;9.23;8.33;;;;;;;16.37;53.65;98157.34;5011585;28;20211;-70
2022/05/09 02:53:37;;;;;;;9.77;8.87;;;;;;;16.26;53.34;98155.00;5011171;28;20435;-70
2022/05/09 02:56:03;;;;;;;10.00;9.00;;;;;;;16.23;54.26;98150.88;5011127;28;20506;-70
2022/05/09 02:58:29;;;;;;;9.27;8.40;;;;;;;16.24;53.85;98157.00;5009929;28;20618;-69
2022/05/09 03:00:55;;;;;;;11.00;8.63;;;;;;;16.35;53.86;98155.81;5011192;28;20550;-69
2022/05/09 03:06:05;;;;;;;11.17;8.73;;;;;;;16.09;54.19;98152.38;5011160;28;20188;-68
2022/05/09 03:08:30;;;;;;;9.37;8.50;;;;;;;15.95;54.49;98147.72;5010905;28;20518;-71
2022/05/09 03:10:56;;;;;;;9.80;8.80;;;;;;;15.99;54.52;98146.41;5011083;28;20208;-70
2022/05/09 03:13:22;;;;;;;9.67;8.70;;;;;;;16.12;53.95;98148.56;5011029;28;20287;-69
2022/05/09 03:15:48;;;;;;;10.33;8.57;;;;;;;16.05;54.07;98148.38;4993752;28;20197;-72
2022/05/09 03:18:16;;;;;;;9.20;8.30;;;;;;;16.15;53.73;98152.69;4993035;28;20494;-71
2022/05/09 03:20:41;;;;;;;10.33;9.33;;;;;;;16.09;53.52;98144.44;4993603;28;20426;-70
2022/05/09 03:23:08;;;;;;;10.67;9.67;;;;;;;15.95;54.10;98153.00;5010423;28;20427;-71
2022/05/09 03:25:35;;;;;;;10.43;9.20;;;;;;;15.89;54.29;98149.19;4993758;28;20246;-70
2022/05/09 03:28:06;;;;;;;11.07;9.97;;;;;;;15.93;54.25;98144.41;5010425;28;20950;-72
2022/05/09 03:30:32;;;;;;;12.97;9.30;;;;;;;15.87;54.19;98145.06;5010973;28;20445;-70
2022/05/09 03:32:58;;;;;;;10.37;9.27;;;;;;;15.94;54.12;98151.34;4993096;28;20752;-70
2022/05/09 03:35:24;;;;;;;11.57;9.90;;;;;;;15.87;54.22;98151.19;5010184;28;20488;-70
2022/05/09 03:37:50;;;;;;;10.33;9.20;;;;;;;15.87;54.27;98151.19;5009657;28;20201;-69
2022/05/09 03:40:18;;;;;;;11.90;9.83;;;;;;;15.88;54.29;98149.38;5010672;28;20185;-69
2022/05/09 03:42:44;;;;;;;9.57;8.63;;;;;;;15.94;54.24;98151.34;4991662;28;20491;-69
2022/05/09 03:45:10;;;;;;;10.43;9.37;;;;;;;15.92;54.26;98148.03;4980685;28;20447;-69
2022/05/09 03:47:36;;;;;;;11.47;10.27;;;;;;;15.91;54.10;98157.81;5010421;28;20436;-70
2022/05/09 03:50:01;;;;;;;15.70;10.00;;;;;;;15.93;53.65;98157.63;4992886;28;20302;-70
2022/05/09 03:52:27;;;;;;;11.20;10.10;;;;;;;15.86;54.00;98159.28;5010021;28;20614;-71
2022/05/09 03:54:53;;;;;;;10.53;9.43;;;;;;;15.85;53.84;98158.44;5009459;28;20207;-71
2022/05/09 03:57:18;;;;;;;13.80;10.77;;;;;;;15.76;54.37;98152.28;5010283;28;20561;-70
2022/05/09 03:59:44;;;;;;;11.30;10.20;;;;;;;15.76;54.16;98162.03;5010407;28;20195;-69
2022/05/09 04:02:10;;;;;;;11.57;10.43;;;;;;;15.76;54.31;98164.69;5010213;28;20679;-70
2022/05/09 04:04:36;;;;;;;11.30;10.10;;;;;;;15.82;54.26;98159.56;4992656;28;20255;-70
2022/05/09 04:07:02;;;;;;;10.87;9.77;;;;;;;15.80;54.45;98156.25;5009858;28;20438;-69
2022/05/09 04:09:27;;;;;;;10.87;9.77;;;;;;;15.92;53.80;98161.25;4992352;28;20431;-70
2022/05/09 04:11:53;;;;;;;10.40;9.40;;;;;;;15.76;54.30;98160.19;5012719;28;20259;-70
2022/05/09 04:16:49;;;;;;;11.80;9.93;;;;;;;15.74;54.28;98167.50;5013488;28;20196;-70
2022/05/09 04:17:08;;;;;;;11.60;10.40;;;;;;;15.78;53.90;98160.88;4995161;28;20244;-70
2022/05/09 04:19:33;;;;;;;11.27;10.00;;;;;;;15.82;54.43;98159.56;5014213;28;20430;-70
2022/05/09 04:22:02;;;;;;;12.90;10.70;;;;;;;15.78;54.31;98163.50;5013775;28;20458;-72
2022/05/09 04:24:28;;;;;;;11.60;10.40;;;;;;;15.68;54.83;98168.13;5014295;28;20207;-70
2022/05/09 04:26:53;;;;;;;11.30;10.10;;;;;;;15.75;54.57;98163.03;5013149;28;20435;-69
2022/05/09 04:29:19;;;;;;;10.50;9.50;;;;;;;15.57;55.06;98165.78;5013628;28;20271;-71
2022/05/09 04:31:44;;;;;;;11.20;9.93;;;;;;;15.70;54.92;98167.94;5013895;28;20215;-69
2022/05/09 04:34:10;;;;;;;13.50;10.77;;;;;;;15.78;54.86;98168.81;4997171;28;20180;-71
2022/05/09 04:36:38;;;;;;;15.40;10.60;;;;;;;15.62;55.47;98166.94;5013357;28;20207;-71
2022/05/09 04:39:04;;;;;;;12.87;9.80;;;;;;;15.77;55.15;98169.78;4995839;28;20587;-70
2022/05/09 04:41:30;;;;;;;12.07;10.80;;;;;;;15.73;55.36;98170.28;5013784;28;20451;-69
2022/05/09 04:43:55;;;;;;;12.33;10.23;;;;;;;15.90;54.86;98173.81;5012825;28;20188;-70
2022/05/09 04:46:21;;;;;;;14.67;10.40;;;;;;;15.93;54.96;98178.78;5013115;28;20506;-71
2022/05/09 04:48:46;;;;;;;12.03;10.40;;;;;;;15.88;55.88;98173.97;4996192;28;20227;-71
2022/05/09 04:51:12;;;;;;;13.60;10.97;;;;;;;16.02;55.35;98182.25;4995124;28;20638;-70
2022/05/09 04:53:38;;;;;;;11.50;10.40;;;;;;;15.99;55.45;98185.22;4996997;28;20176;-71
2022/05/09 04:56:04;;;;;;;14.10;10.90;;;;;;;16.07;55.31;98183.44;5013136;28;20207;-70
2022/05/09 04:58:29;;;;;;;12.00;10.17;;;;;;;16.08;55.48;98184.25;5013414;28;20423;-70
2022/05/09 05:00:55;;;;;;;14.47;9.40;;;;;;;16.06;55.55;98187.06;5012737;28;20481;-70
2022/05/09 05:03:21;;;;;;;16.60;10.50;;;;;;;16.16;55.60;98186.06;5013552;28;20207;-70
2022/05/09 05:05:46;;;;;;;11.40;10.20;;;;;;;16.19;55.37;98186.56;4997449;28;20189;-70
2022/05/09 05:08:13;;;;;;;12.23;11.00;;;;;;;16.19;56.13;98180.47;5012440;28;20193;-70
2022/05/09 05:10:39;;;;;;;13.87;11.20;;;;;;;16.30;55.95;98193.34;5006599;28;20180;-70
2022/05/09 05:13:05;;;;;;;15.47;11.20;;;;;;;16.30;56.16;98188.06;5013186;28;20427;-69
2022/05/09 05:15:31;;;;;;;13.17;11.80;;;;;;;16.42;56.07;98185.94;5013352;28;20215;-70
2022/05/09 05:17:56;;;;;;;12.60;10.77;;;;;;;16.46;56.06;98191.72;5012969;28;20231;-71
2022/05/09 05:20:22;;;;;;;12.13;10.80;;;;;;;16.52;56.28;98191.03;4978598;28;20431;-72
2022/05/09 05:22:49;;;;;;;13.30;11.00;;;;;;;16.67;56.03;98191.19;4995732;28;20201;-70
2022/05/09 05:25:27;;;;;;;12.73;11.43;;;;;;;16.78;55.98;98195.31;5012676;28;20319;-72
2022/05/09 05:27:53;;;;;;;14.57;11.60;;;;;;;16.88;55.92;98188.84;5012935;28;20525;-70
2022/05/09 05:30:18;;;;;;;12.40;10.60;;;;;;;17.01;55.86;98190.16;4977707;28;20435;-70
2022/05/09 05:32:44;;;;;;;12.97;11.60;;;;;;;17.11;55.77;98195.28;5012590;28;20463;-70
2022/05/09 05:35:16;;;;;;;15.07;12.20;;;;;;;17.18;55.41;98197.09;5012525;28;20199;-69
2022/05/09 05:37:42;;;;;;;14.10;11.47;;;;;;;17.28;55.77;98196.06;4993966;28;20459;-71
2022/05/09 05:40:09;;;;;;;14.43;12.20;;;;;;;17.36;55.68;98198.66;5011716;28;20430;-70
2022/05/09 05:42:37;;;;;;;13.10;11.80;;;;;;;17.41;55.64;98206.09;5011971;28;20290;-70
2022/05/09 05:45:03;;;;;;;16.83;11.80;;;;;;;17.57;55.79;98205.22;5006933;28;20439;-69
2022/05/09 05:47:29;;;;;;;13.17;11.83;;;;;;;17.70;55.62;98200.19;5012496;28;20430;-70
2022/05/09 05:49:55;;;;;;;14.17;11.90;;;;;;;17.78;55.63;98207.25;5012821;28;20423;-70
2022/05/09 05:52:20;;;;;;;16.30;12.87;;;;;;;17.90;54.96;98205.03;5012147;28;20203;-71
2022/05/09 05:54:46;;;;;;;13.30;12.00;;;;;;;18.07;55.70;98205.78;4996697;28;20188;-72
2022/05/09 05:57:21;;;;;;;17.03;12.57;;;;;;;18.23;55.38;98210.16;5013879;28;20250;-70
2022/05/09 05:59:58;;;;;;;16.03;12.67;;;;;;;18.39;54.94;98210.03;5013948;28;20179;-71
2022/05/09 06:02:24;;;;;;;14.70;13.20;;;;;;;18.51;54.31;98210.44;5013363;28;20442;-70
2022/05/09 06:04:50;;;;;;;12.90;11.57;;;;;;;18.63;54.33;98217.97;5013451;28;20425;-69
2022/05/09 06:07:17;;;;;;;17.33;12.53;;;;;;;18.79;53.66;98215.16;5013115;28;20438;-69
2022/05/09 06:09:46;;;;;;;12.80;11.63;;;;;;;18.96;53.69;98220.34;4995379;28;20559;-70
2022/05/09 06:12:14;;;;;;;12.47;11.27;;;;;;;19.18;53.28;98214.13;5012725;28;20505;-69
2022/05/09 06:14:40;;;;;;;12.57;11.30;;;;;;;19.30;53.04;98214.50;4996414;28;20428;-72
2022/05/09 06:17:06;;;;;;;13.47;12.23;;;;;;;19.38;52.51;98212.75;5015335;28;20458;-71
2022/05/09 06:19:32;;;;;;;12.67;11.37;;;;;;;19.53;52.20;98218.06;5007639;28;20191;-69
2022/05/09 06:21:59;;;;;;;12.43;11.23;;;;;;;19.68;52.05;98213.53;4993718;28;20451;-69
2022/05/09 06:24:25;;;;;;;12.43;11.13;;;;;;;19.78;51.34;98230.00;5010626;28;20180;-67
2022/05/09 06:26:50;;;;;;;12.10;11.00;;;;;;;19.98;51.36;98217.97;5010275;28;20433;-69
2022/05/09 06:29:16;;;;;;;13.60;12.30;;;;;;;20.12;50.39;98218.97;5010506;28;20272;-72
2022/05/09 06:31:42;;;;;;;11.47;10.37;;;;;;;20.30;49.87;98226.50;4993355;28;20729;-71
2022/05/09 06:34:11;;;;;;;12.63;11.10;;;;;;;20.46;49.16;98228.09;5011005;28;20436;-69
2022/05/09 06:36:38;;;;;;;11.70;10.60;;;;;;;20.59;49.28;98225.53;5009337;28;20212;-69
2022/05/09 06:39:05;;;;;;;13.87;11.73;;;;;;;20.74;48.47;98221.97;5011195;28;20936;-69
2022/05/09 06:41:31;;;;;;;10.87;9.87;;;;;;;20.82;48.49;98224.50;4994474;28;20471;-69
2022/05/09 06:43:57;;;;;;;15.03;11.73;;;;;;;20.96;48.50;98223.59;5010517;28;20435;-70
2022/05/09 06:46:23;;;;;;;14.50;11.10;;;;;;;21.10;48.14;98227.19;5010262;28;20478;-69
2022/05/09 06:48:48;;;;;;;12.33;11.13;;;;;;;21.25;47.92;98224.41;4994022;28;20187;-67
2022/05/09 06:51:14;;;;;;;13.83;10.13;;;;;;;21.39;47.54;98224.47;5010692;28;20195;-68
2022/05/09 06:53:40;;;;;;;13.00;10.37;;;;;;;21.40;46.48;98221.59;5010007;28;20180;-69
2022/05/09 06:56:06;;;;;;;15.90;11.77;;;;;;;21.41;46.12;98217.09;5011348;28;20184;-69
2022/05/09 06:58:32;;;;;;;11.17;9.90;;;;;;;21.57;46.43;98227.41;4993774;28;20185;-67
2022/05/09 07:00:57;;;;;;;11.57;10.40;;;;;;;21.69;45.92;98226.88;4993620;28;20478;-68
2022/05/09 07:03:23;;;;;;;12.40;11.10;;;;;;;21.74;46.29;98233.25;4993549;28;20271;-69
2022/05/09 07:05:51;;;;;;;13.77;11.63;;;;;;;21.66;45.40;98229.97;5011427;28;20267;-68
2022/05/09 07:08:18;;;;;;;14.30;10.60;;;;;;;21.79;45.50;98235.34;4993391;28;20635;-69
2022/05/09 07:10:44;;;;;;;11.10;10.00;;;;;;;21.86;44.95;98230.84;5011250;28;20845;-67
2022/05/09 07:13:09;;;;;;;11.37;10.30;;;;;;;22.01;45.87;98229.88;5010912;28;20475;-69
2022/05/09 07:15:35;;;;;;;13.30;10.70;;;;;;;22.17;45.42;98221.50;5010911;28;20188;-68
2022/05/09 07:18:01;;;;;;;12.30;10.93;;;;;;;22.29;44.20;98229.72;5010795;28;20622;-69
2022/05/09 07:20:28;;;;;;;11.47;10.37;;;;;;;22.36;43.90;98227.06;4993770;28;20188;-69
2022/05/09 07:22:56;;;;;;;12.13;10.93;;;;;;;22.40;44.37;98214.97;5010840;28;20207;-68
2022/05/09 07:25:23;;;;;;;11.23;10.23;;;;;;;22.39;43.97;98218.66;5011026;28;20926;-68
2022/05/09 07:27:49;;;;;;;11.40;9.53;;;;;;;22.53;44.20;98227.50;5010786;28;20431;-68
2022/05/09 07:30:20;;;;;;;11.23;10.10;;;;;;;22.59;43.27;98228.53;5006408;28;20449;-68
2022/05/09 07:32:46;;;;;;;11.93;9.07;;;;;;;22.66;43.40;98227.53;5008729;28;20219;-69
2022/05/09 07:35:14;;;;;;;11.70;10.50;;;;;;;22.81;43.82;98226.50;4992366;28;20427;-68
2022/05/09 07:37:40;;;;;;;11.93;9.23;;;;;;;22.94;43.08;98226.47;5010226;28;20470;-68
2022/05/09 07:40:07;;;;;;;11.33;10.23;;;;;;;23.19;43.26;98228.50;4977147;28;20433;-69
2022/05/09 07:42:34;;;;;;;9.70;8.80;;;;;;;23.40;42.64;98232.81;5010830;28;20463;-69
2022/05/09 07:45:01;;;;;;;11.13;9.50;;;;;;;23.48;42.07;98231.75;5012522;28;20443;-68
2022/05/09 07:47:27;;;;;;;12.43;10.33;;;;;;;23.65;41.65;98226.75;5013880;28;20418;-69
2022/05/09 07:49:52;;;;;;;11.90;9.03;;;;;;;23.76;41.64;98230.59;4997124;28;20934;-70
2022/05/09 07:52:18;;;;;;;12.30;9.33;;;;;;;23.87;41.10;98226.44;5014053;28;20208;-68
2022/05/09 07:54:46;;;;;;;15.93;9.40;;;;;;;23.97;40.79;98218.78;4980985;28;20180;-68
2022/05/09 07:57:11;;;;;;;10.60;9.40;;;;;;;24.11;40.49;98224.06;5013899;28;20315;-69
2022/05/09 07:59:37;;;;;;;16.03;8.73;;;;;;;24.17;40.99;98221.34;5014468;28;20514;-69
2022/05/09 08:02:02;;;;;;;10.73;8.70;;;;;;;24.34;40.50;98224.31;5014260;28;20212;-67
2022/05/09 08:04:28;;;;;;;9.07;8.03;;;;;;;24.48;39.83;98226.91;5014543;28;20651;-68
2022/05/09 08:06:53;;;;;;;10.83;8.60;;;;;;;24.63;39.74;98222.06;5014361;28;20176;-68
2022/05/09 08:09:19;;;;;;;11.40;8.80;;;;;;;24.79;39.53;98231.44;5014087;28;20651;-68
2022/05/09 08:11:44;;;;;;;10.00;8.80;;;;;;;24.91;39.12;98226.19;5014298;28;20231;-69
2022/05/09 08:14:11;;;;;;;11.27;8.20;;;;;;;25.06;38.92;98227.69;5014177;28;20184;-67
2022/05/09 08:16:37;;;;;;;17.30;8.43;;;;;;;25.20;38.65;98231.91;5014128;28;20216;-68
2022/05/09 08:19:03;;;;;;;8.83;7.93;;;;;;;25.34;38.45;98234.41;4996200;28;20501;-69
2022/05/09 08:21:29;;;;;;;9.03;8.13;;;;;;;25.45;38.65;98231.84;4996647;28;20451;-69
2022/05/09 08:23:55;;;;;;;11.13;8.57;;;;;;;25.61;37.71;98230.41;5013576;28;20188;-71
2022/05/09 08:26:23;;;;;;;8.90;7.93;;;;;;;25.64;38.12;98231.00;5013760;28;20438;-69
2022/05/09 08:28:52;;;;;;;9.00;8.00;;;;;;;25.61;37.25;98238.47;5014274;28;20287;-68
2022/05/09 08:31:18;;;;;;;9.80;7.70;;;;;;;25.65;37.17;98227.28;5013733;28;20517;-69
2022/05/09 08:33:49;;;;;;;8.57;7.80;;;;;;;25.73;37.90;98229.66;5013731;28;20522;-67
2022/05/09 08:39:00;;;;;;;11.53;7.80;;;;;;;26.00;37.36;98230.13;5008897;28;20477;-70
2022/05/09 08:41:26;;;;;;;9.03;8.13;;;;;;;26.14;37.31;98230.78;5013102;28;20482;-68
2022/05/09 08:44:10;;;;;;;9.90;8.17;;;;;;;26.26;36.97;98227.31;4995933;28;20505;-68
2022/05/09 08:46:43;;;;;;;8.53;7.50;;;;;;;26.50;36.90;98229.00;5011140;28;20937;-69
2022/05/09 08:49:18;;;;;;;10.43;7.27;;;;;;;26.57;36.63;98228.09;4992790;28;20463;-68
2022/05/09 08:51:56;;;;;;;8.40;7.17;;;;;;;26.82;35.93;98233.28;5013098;28;20454;-68
2022/05/09 08:54:22;;;;;;;9.03;7.80;;;;;;;26.60;34.97;98228.44;4996989;28;20438;-67
2022/05/09 08:56:55;;;;;;;7.53;6.83;;;;;;;26.56;35.45;98231.84;4995275;28;20465;-67
2022/05/09 08:59:27;;;;;;;10.37;7.73;;;;;;;26.73;35.59;98230.09;4995794;28;20514;-68
2022/05/09 09:02:09;;;;;;;12.87;8.30;;;;;;;26.92;35.36;98230.81;4995856;28;20454;-67
2022/05/09 09:04:36;;;;;;;10.80;7.63;;;;;;;27.02;34.89;98238.31;4996412;28;20428;-67
2022/05/09 09:07:36;;;;;;;10.13;6.90;;;;;;;27.20;35.20;98233.88;4979366;28;20485;-67
2022/05/09 09:10:14;;;;;;;8.30;7.47;;;;;;;27.23;34.16;98230.69;4974300;28;20439;-68
2022/05/09 09:12:57;;;;;;;8.77;7.23;;;;;;;27.36;34.31;98229.63;4996009;28;20805;-68
2022/05/09 09:15:29;;;;;;;8.10;6.60;;;;;;;27.53;33.91;98227.88;5013335;28;20426;-68
2022/05/09 09:18:25;;;;;;;8.03;5.90;;;;;;;27.68;33.72;98234.59;5013599;28;20514;-69
2022/05/09 09:21:01;;;;;;;6.63;5.93;;;;;;;27.67;33.25;98235.66;4995727;28;20953;-68
2022/05/09 09:23:44;;;;;;;6.83;6.10;;;;;;;27.80;33.21;98235.38;5008049;28;20474;-67
2022/05/09 09:26:34;;;;;;;6.63;6.03;;;;;;;28.07;32.52;98231.31;4995065;28;20514;-68
2022/05/09 09:29:25;;;;;;;5.83;5.27;;;;;;;27.92;32.47;98235.34;4998512;28;20459;-69
2022/05/09 09:32:03;;;;;;;6.27;5.70;;;;;;;27.78;32.92;98234.00;5013008;28;20970;-68
2022/05/09 09:34:38;;;;;;;8.37;6.70;;;;;;;27.41;33.27;98233.25;5013366;28;20477;-69
2022/05/09 09:37:18;;;;;;;6.40;5.77;;;;;;;27.75;32.91;98233.41;4995345;28;20870;-68
2022/05/09 09:39:44;;;;;;;6.30;5.70;;;;;;;27.91;33.16;98228.34;4995425;28;20519;-68
2022/05/09 09:42:09;;;;;;;6.80;6.10;;;;;;;28.19;31.77;98222.13;5012786;28;20618;-68
2022/05/09 09:44:38;;;;;;;7.20;5.40;;;;;;;28.38;31.81;98227.31;5013186;28;20184;-68
2022/05/09 09:47:08;;;;;;;8.00;6.70;;;;;;;28.40;31.65;98221.69;4994897;28;20176;-71
2022/05/09 09:49:37;;;;;;;7.67;6.87;;;;;;;28.39;30.90;98215.47;5013247;28;20416;-68
2022/05/09 09:52:13;;;;;;;7.07;6.37;;;;;;;28.22;31.75;98220.84;5012337;28;20447;-68
2022/05/09 09:54:38;;;;;;;9.03;6.50;;;;;;;28.30;32.01;98225.84;5012897;28;20423;-69
2022/05/09 09:57:22;;;;;;;10.90;7.13;;;;;;;28.38;31.54;98231.88;4994648;28;20963;-68
2022/05/09 09:59:48;;;;;;;6.80;6.20;;;;;;;28.01;31.81;98222.34;5012621;28;20195;-68
2022/05/09 10:02:23;;;;;;;7.80;5.77;;;;;;;28.10;31.73;98220.09;5012236;28;20856;-69
2022/05/09 10:04:48;;;;;;;8.73;6.07;;;;;;;28.51;31.98;98216.22;5012571;28;20265;-69
2022/05/09 10:07:26;;;;;;;6.70;6.10;;;;;;;28.74;32.39;98210.91;5010784;28;20475;-68
2022/05/09 10:10:05;;;;;;;11.10;6.13;;;;;;;28.63;31.45;98210.72;5015510;28;20274;-69
2022/05/09 10:12:31;;;;;;;10.73;6.13;;;;;;;28.75;31.82;98197.19;5005276;28;20458;-69
2022/05/09 10:14:57;;;;;;;7.40;5.43;;;;;;;28.53;31.71;98199.78;4993616;28;20438;-69
2022/05/09 10:17:26;;;;;;;6.83;5.70;;;;;;;28.69;31.98;98203.53;5011066;28;20513;-69
2022/05/09 10:19:53;;;;;;;6.80;6.10;;;;;;;28.57;30.95;98203.63;5011855;28;20274;-69
2022/05/09 10:25:28;;;;;;;6.53;5.80;;;;;;;29.11;31.67;98205.81;4989119;28;20433;-70
2022/05/09 10:28:13;;;;;;;6.73;5.73;;;;;;;29.30;30.52;98202.00;5011967;28;20988;-69
2022/05/09 10:30:48;;;;;;;8.70;6.33;;;;;;;29.27;30.65;98200.63;5005910;28;20426;-69
2022/05/09 10:33:32;;;;;;;7.97;5.57;;;;;;;29.31;30.29;98203.63;4994104;28;20446;-68
2022/05/09 10:36:02;;;;;;;6.23;5.70;;;;;;;29.09;30.79;98196.34;4995752;28;20435;-69
2022/05/09 10:38:33;;;;;;;6.50;5.70;;;;;;;29.19;30.55;98212.66;4993996;28;20537;-69
2022/05/09 10:41:05;;;;;;;5.50;5.00;;;;;;;29.49;31.48;98203.31;5011462;28;20451;-71
2022/05/09 10:43:35;;;;;;;6.27;5.67;;;;;;;29.07;29.03;98187.66;5011924;28;20412;-69
2022/05/09 10:46:05;;;;;;;8.80;5.33;;;;;;;29.36;29.74;98190.22;5009944;28;20459;-69
2022/05/09 10:48:38;;;;;;;5.50;4.97;;;;;;;29.71;29.57;98180.91;4994265;28;20446;-68
2022/05/09 10:51:10;;;;;;;8.30;6.87;;;;;;;30.08;29.32;98180.22;4993867;28;20458;-70
2022/05/09 10:53:35;;;;;;;5.43;4.67;;;;;;;30.38;28.57;98183.44;4993882;28;20497;-69
2022/05/09 10:56:08;;;;;;;7.53;6.83;;;;;;;30.59;27.79;98174.44;5011311;28;20427;-68
2022/05/09 10:59:02;;;;;;;6.07;5.47;;;;;;;30.33;28.09;98178.81;5011145;28;20271;-68
2022/05/09 11:01:38;;;;;;;6.87;6.17;;;;;;;30.26;27.93;98184.44;5011532;28;20562;-70
2022/05/09 11:04:03;;;;;;;10.10;5.73;;;;;;;30.03;28.18;98180.16;5011275;28;20922;-69
2022/05/09 11:06:55;;;;;;;6.33;4.87;;;;;;;29.89;28.76;98175.13;5011428;28;20518;-69
2022/05/09 11:09:58;;;;;;;6.83;5.27;;;;;;;29.49;29.33;98173.63;5011431;28;20655;-68
2022/05/09 11:12:47;;;;;;;8.57;5.20;;;;;;;29.19;29.40;98171.34;5011126;28;20449;-69
2022/05/09 11:15:36;;;;;;;5.90;4.63;;;;;;;29.08;29.07;98173.91;4993547;28;20843;-68
2022/05/09 11:18:24;;;;;;;6.33;5.37;;;;;;;28.93;29.25;98171.00;4963032;28;20511;-68
2022/05/09 11:21:10;;;;;;;6.43;5.27;;;;;;;28.65;30.07;98175.44;4993668;28;20474;-68
2022/05/09 11:23:36;;;;;;;7.70;4.87;;;;;;;28.38;30.38;98170.72;5007101;28;20850;-67
2022/05/09 11:26:24;;;;;;;5.00;4.60;;;;;;;28.23;30.78;98163.19;5010880;28;20439;-70
2022/05/09 11:29:18;;;;;;;6.00;4.70;;;;;;;28.12;31.34;98159.53;4970073;28;20188;-69
2022/05/09 11:32:01;;;;;;;7.00;5.10;;;;;;;27.72;30.36;98163.88;4987993;28;20538;-68
2022/05/09 11:34:46;;;;;;;8.60;5.20;;;;;;;27.69;30.86;98164.38;5011153;28;20420;-68
2022/05/09 11:37:33;;;;;;;10.77;4.87;;;;;;;27.59;30.82;98161.50;5009078;28;20470;-67
2022/05/09 11:40:05;;;;;;;5.23;4.83;;;;;;;27.40;30.60;98161.66;5010875;28;20530;-69
2022/05/09 11:46:26;;;;;;;6.07;5.43;;;;;;;27.74;31.10;98159.09;5006665;28;20423;-69
2022/05/09 11:48:57;;;;;;;5.70;5.20;;;;;;;27.73;30.91;98152.06;5006849;28;20423;-68
2022/05/09 11:51:45;;;;;;;5.60;4.80;;;;;;;27.69;30.80;98150.94;5010457;28;20449;-68